LFSL - Brive , Souillac,France,Corrèze Lot
Mise à jour: Sat, 21-Jul-2018 04:00 CEST
Clear
Clear
 Wind from varies
Vent: varies 6 km/h
Température: 15°C
Point de Rosée: 12°C
Humidité: 82%
Barometre: 1016 hPa
Visibilité: greater than 10 km
2018/07/21 02:00 LFSL 210200Z AUTO VRB03KT CAVOK 15/12 Q1016